Time;durP1;ratioP1;P1;durP2;ratioP2;P2;SDS_P1;SDS_P2;PMS_P1;PMS_P2;Temp;Humidity;BMP_temperature;BMP_pressure;BME280_temperature;BME280_humidity;BME280_pressure;Samples;Min_cycle;Max_cycle;Signal;HPM_P1;HPM_P2
2022/06/16 00:01:19;;;;;;;2.17;2.00;;;;;;;;;;8350861;28;20098;-60
2022/06/16 00:05:20;;;;;;;4.27;1.93;;;;;;;;;;8355204;28;20803;-60
2022/06/16 00:09:21;;;;;;;7.15;2.33;;;;;;;;;;8353994;28;20078;-60
2022/06/16 00:13:21;;;;;;;2.85;2.15;;;;;;;;;;8353991;28;20040;-61
2022/06/16 00:17:21;;;;;;;3.15;1.92;;;;;;;;;;8354377;28;20057;-60
2022/06/16 00:21:22;;;;;;;5.63;2.00;;;;;;;;;;8355344;28;20039;-61
2022/06/16 00:25:22;;;;;;;3.67;1.95;;;;;;;;;;8359418;28;20265;-60
2022/06/16 00:29:23;;;;;;;2.75;2.03;;;;;;;;;;8358110;28;20028;-60
2022/06/16 00:33:23;;;;;;;3.38;1.95;;;;;;;;;;8357511;28;20353;-60
2022/06/16 00:37:23;;;;;;;2.15;1.80;;;;;;;;;;8359867;28;20036;-60
2022/06/16 00:41:24;;;;;;;2.10;1.83;;;;;;;;;;8357000;28;20098;-60
2022/06/16 00:45:43;;;;;;;2.85;2.00;;;;;;;;;;8354365;28;20788;-60
2022/06/16 00:49:44;;;;;;;4.35;2.20;;;;;;;;;;8359074;28;20058;-61
2022/06/16 00:53:45;;;;;;;3.30;2.00;;;;;;;;;;8356268;28;20027;-61
2022/06/16 00:57:47;;;;;;;1.98;1.80;;;;;;;;;;8352947;28;20021;-60
2022/06/16 01:01:47;;;;;;;2.80;2.00;;;;;;;;;;8357119;28;20029;-60
2022/06/16 01:05:47;;;;;;;2.60;1.83;;;;;;;;;;8359231;28;20138;-61
2022/06/16 01:09:48;;;;;;;2.38;2.10;;;;;;;;;;8360228;28;20021;-61
2022/06/16 01:13:51;;;;;;;4.55;2.40;;;;;;;;;;8356638;28;20033;-60
2022/06/16 01:18:01;;;;;;;3.58;2.20;;;;;;;;;;8355640;28;20097;-60
2022/06/16 01:22:06;;;;;;;3.85;2.10;;;;;;;;;;8356586;28;20029;-61
2022/06/16 01:26:25;;;;;;;2.88;2.10;;;;;;;;;;8354335;28;20111;-60
2022/06/16 01:30:31;;;;;;;2.22;2.03;;;;;;;;;;8353230;28;20032;-60
2022/06/16 01:34:50;;;;;;;3.25;1.95;;;;;;;;;;8356821;28;20048;-60
2022/06/16 01:38:50;;;;;;;2.33;2.00;;;;;;;;;;8355877;28;20032;-60
2022/06/16 01:42:54;;;;;;;2.78;1.85;;;;;;;;;;8358081;28;20032;-61
2022/06/16 01:47:10;;;;;;;3.03;2.10;;;;;;;;;;8355100;28;20083;-60
2022/06/16 01:51:18;;;;;;;3.35;2.10;;;;;;;;;;8354995;28;20108;-60
2022/06/16 01:55:20;;;;;;;2.10;1.90;;;;;;;;;;8355139;28;20067;-60
2022/06/16 01:59:24;;;;;;;3.05;2.17;;;;;;;;;;8354712;28;20012;-61
2022/06/16 02:03:28;;;;;;;4.25;2.28;;;;;;;;;;8355601;28;20036;-61
2022/06/16 02:07:33;;;;;;;3.15;2.05;;;;;;;;;;8356459;28;20855;-60
2022/06/16 02:11:34;;;;;;;2.50;2.00;;;;;;;;;;8357212;28;20086;-61
2022/06/16 02:15:40;;;;;;;4.25;2.40;;;;;;;;;;8355201;28;20136;-61
2022/06/16 02:19:40;;;;;;;2.88;1.95;;;;;;;;;;8358303;28;20020;-61
2022/06/16 02:23:41;;;;;;;4.13;2.20;;;;;;;;;;8355944;28;20672;-61
2022/06/16 02:27:41;;;;;;;3.25;1.77;;;;;;;;;;8357825;28;20492;-61
2022/06/16 02:32:00;;;;;;;2.20;1.77;;;;;;;;;;8355175;28;20066;-60
2022/06/16 02:36:27;;;;;;;4.95;1.98;;;;;;;;;;8357442;28;20020;-60
2022/06/16 02:40:37;;;;;;;4.47;2.20;;;;;;;;;;8324301;28;20040;-61
2022/06/16 02:44:44;;;;;;;3.05;2.20;;;;;;;;;;8356216;28;20032;-60
2022/06/16 02:48:45;;;;;;;3.97;2.13;;;;;;;;;;8356426;28;20101;-61
2022/06/16 02:52:47;;;;;;;2.40;2.03;;;;;;;;;;8356419;28;20029;-61
2022/06/16 02:56:47;;;;;;;2.95;2.17;;;;;;;;;;8355376;28;20032;-61
2022/06/16 03:00:49;;;;;;;4.15;1.90;;;;;;;;;;8356410;28;20735;-61
2022/06/16 03:04:51;;;;;;;3.17;2.08;;;;;;;;;;8354531;28;20028;-61
2022/06/16 03:08:52;;;;;;;3.63;2.10;;;;;;;;;;8354113;28;20051;-60
2022/06/16 03:12:52;;;;;;;3.67;1.97;;;;;;;;;;8352897;28;20028;-61
2022/06/16 03:16:52;;;;;;;2.63;1.83;;;;;;;;;;8353043;28;20290;-61
2022/06/16 03:20:52;;;;;;;3.60;2.10;;;;;;;;;;8355186;28;20194;-61
2022/06/16 03:24:53;;;;;;;3.58;1.98;;;;;;;;;;8354974;28;20033;-60
2022/06/16 03:28:53;;;;;;;2.47;1.83;;;;;;;;;;8353041;28;20074;-60
2022/06/16 03:32:53;;;;;;;5.53;2.00;;;;;;;;;;8351416;28;20795;-61
2022/06/16 03:36:54;;;;;;;3.33;2.10;;;;;;;;;;8355150;28;20047;-61
2022/06/16 03:40:54;;;;;;;3.33;2.10;;;;;;;;;;8353396;28;20021;-61
2022/06/16 03:44:54;;;;;;;3.10;2.00;;;;;;;;;;8354009;28;20037;-61
2022/06/16 03:48:54;;;;;;;3.75;2.45;;;;;;;;;;8352711;28;20041;-61
2022/06/16 03:52:55;;;;;;;4.70;2.05;;;;;;;;;;8354204;28;20020;-61
2022/06/16 03:56:55;;;;;;;2.55;1.92;;;;;;;;;;8361558;28;20139;-60
2022/06/16 04:00:56;;;;;;;3.70;2.10;;;;;;;;;;8358593;28;20051;-61
2022/06/16 04:04:56;;;;;;;3.35;1.80;;;;;;;;;;8361347;28;20275;-60
2022/06/16 04:08:57;;;;;;;5.57;2.00;;;;;;;;;;8359383;28;20025;-60
2022/06/16 04:12:57;;;;;;;2.80;1.90;;;;;;;;;;8357778;28;20032;-60
2022/06/16 04:16:58;;;;;;;4.55;2.00;;;;;;;;;;8357832;28;20097;-60
2022/06/16 04:20:58;;;;;;;4.43;2.00;;;;;;;;;;8358954;28;20065;-60
2022/06/16 04:24:58;;;;;;;5.43;2.33;;;;;;;;;;8358412;28;20060;-60
2022/06/16 04:28:59;;;;;;;2.60;1.60;;;;;;;;;;8358708;28;20027;-60
2022/06/16 04:32:59;;;;;;;2.85;1.70;;;;;;;;;;8358967;28;20069;-60
2022/06/16 04:36:59;;;;;;;6.00;1.95;;;;;;;;;;8359810;28;20028;-60
2022/06/16 04:40:59;;;;;;;3.78;1.85;;;;;;;;;;8358019;28;20345;-60
2022/06/16 04:44:59;;;;;;;3.42;1.90;;;;;;;;;;8357722;28;20109;-60
2022/06/16 04:49:00;;;;;;;3.17;1.98;;;;;;;;;;8358547;28;20037;-60
2022/06/16 04:53:00;;;;;;;4.23;2.10;;;;;;;;;;8355686;28;20029;-60
2022/06/16 04:57:00;;;;;;;3.85;2.00;;;;;;;;;;8357134;28;20063;-60
2022/06/16 05:01:00;;;;;;;3.10;2.10;;;;;;;;;;8355269;28;20124;-61
2022/06/16 05:05:00;;;;;;;2.95;1.98;;;;;;;;;;8355291;28;20028;-59
2022/06/16 05:09:01;;;;;;;3.78;2.15;;;;;;;;;;8359439;28;20017;-60
2022/06/16 05:13:01;;;;;;;4.97;1.95;;;;;;;;;;8356692;28;20445;-60
2022/06/16 05:17:02;;;;;;;2.13;1.80;;;;;;;;;;8355794;28;20079;-60
2022/06/16 05:21:03;;;;;;;2.63;1.95;;;;;;;;;;8356603;28;20029;-60
2022/06/16 05:25:03;;;;;;;4.35;2.10;;;;;;;;;;8357355;28;20131;-60
2022/06/16 05:29:04;;;;;;;2.97;2.00;;;;;;;;;;8356085;28;20897;-60
2022/06/16 05:33:04;;;;;;;2.57;2.00;;;;;;;;;;8356277;28;20473;-60
2022/06/16 05:37:05;;;;;;;3.70;1.73;;;;;;;;;;8355404;28;20278;-61
2022/06/16 05:41:10;;;;;;;2.80;1.92;;;;;;;;;;8354806;28;20250;-61
2022/06/16 05:45:11;;;;;;;3.35;2.00;;;;;;;;;;8350700;28;20017;-61
2022/06/16 05:49:12;;;;;;;5.28;1.65;;;;;;;;;;8350863;28;20017;-60
2022/06/16 05:53:13;;;;;;;2.83;2.20;;;;;;;;;;8354653;28;20024;-60
2022/06/16 05:57:13;;;;;;;4.72;2.03;;;;;;;;;;8353381;28;20032;-60
2022/06/16 06:01:14;;;;;;;5.28;2.00;;;;;;;;;;8351046;28;20504;-60
2022/06/16 06:05:15;;;;;;;2.85;2.05;;;;;;;;;;8358298;28;20144;-65
2022/06/16 06:17:53;;;;;;;4.00;2.13;;;;;;;;;;8355287;28;20051;-60
2022/06/16 06:22:02;;;;;;;3.58;1.88;;;;;;;;;;8353756;28;20111;-60
2022/06/16 06:26:03;;;;;;;4.65;2.00;;;;;;;;;;8353945;28;20477;-61
2022/06/16 06:30:04;;;;;;;2.80;1.92;;;;;;;;;;8354390;28;20119;-61
2022/06/16 06:34:05;;;;;;;4.57;2.03;;;;;;;;;;8354214;28;20388;-60
2022/06/16 06:38:05;;;;;;;3.90;1.80;;;;;;;;;;8355884;28;20082;-61
2022/06/16 06:42:05;;;;;;;3.53;2.03;;;;;;;;;;8354368;28;20115;-60
2022/06/16 06:46:06;;;;;;;4.30;1.90;;;;;;;;;;8351207;28;20682;-61
2022/06/16 06:50:07;;;;;;;3.45;1.90;;;;;;;;;;8350645;28;20020;-62
2022/06/16 06:54:08;;;;;;;3.92;1.73;;;;;;;;;;8354237;28;20017;-60
2022/06/16 06:58:10;;;;;;;4.30;1.90;;;;;;;;;;8355987;28;20376;-60
2022/06/16 07:02:11;;;;;;;3.35;1.92;;;;;;;;;;8351841;28;20029;-60
2022/06/16 07:06:11;;;;;;;3.92;1.90;;;;;;;;;;8352769;28;20425;-61
2022/06/16 07:10:12;;;;;;;3.33;1.77;;;;;;;;;;8352792;28;20035;-61
2022/06/16 07:14:12;;;;;;;3.15;1.75;;;;;;;;;;8351804;28;20024;-60
2022/06/16 07:18:13;;;;;;;2.55;1.70;;;;;;;;;;8354152;28;20432;-60
2022/06/16 07:22:13;;;;;;;3.40;2.00;;;;;;;;;;8355810;28;20036;-60
2022/06/16 07:26:13;;;;;;;5.30;1.83;;;;;;;;;;8349226;28;20082;-61
2022/06/16 07:30:16;;;;;;;5.80;1.90;;;;;;;;;;8353360;28;20478;-61
2022/06/16 07:34:17;;;;;;;4.70;1.90;;;;;;;;;;8354726;28;20016;-60
2022/06/16 07:38:18;;;;;;;3.00;1.70;;;;;;;;;;8351882;28;20771;-61
2022/06/16 07:42:18;;;;;;;3.00;1.77;;;;;;;;;;8350874;28;20020;-60
2022/06/16 07:46:18;;;;;;;3.50;1.80;;;;;;;;;;8352734;28;20658;-61
2022/06/16 07:50:18;;;;;;;5.43;1.63;;;;;;;;;;8352914;28;20047;-61
2022/06/16 07:54:19;;;;;;;7.27;1.97;;;;;;;;;;8353834;28;20487;-61
2022/06/16 07:58:19;;;;;;;4.28;1.70;;;;;;;;;;8352409;28;20027;-61
2022/06/16 08:02:20;;;;;;;2.55;1.58;;;;;;;;;;8352987;28;20032;-61
2022/06/16 08:06:26;;;;;;;3.47;2.60;;;;;;;;;;8354311;28;20024;-61
2022/06/16 08:10:27;;;;;;;5.72;3.05;;;;;;;;;;8350329;28;20091;-61
2022/06/16 08:14:27;;;;;;;5.17;2.03;;;;;;;;;;8353597;28;20028;-61
2022/06/16 08:18:28;;;;;;;5.57;2.30;;;;;;;;;;8354143;28;20370;-61
2022/06/16 08:22:28;;;;;;;4.33;2.00;;;;;;;;;;8352315;28;21002;-61
2022/06/16 08:26:29;;;;;;;4.03;1.90;;;;;;;;;;8352667;28;20648;-61
2022/06/16 08:30:30;;;;;;;3.97;1.77;;;;;;;;;;8356460;28;21026;-61
2022/06/16 08:34:30;;;;;;;3.65;1.88;;;;;;;;;;8355628;28;20051;-61
2022/06/16 08:38:31;;;;;;;3.95;2.00;;;;;;;;;;8351324;28;20426;-61
2022/06/16 08:42:50;;;;;;;5.13;1.80;;;;;;;;;;8354693;28;20553;-60
2022/06/16 08:46:59;;;;;;;3.55;2.13;;;;;;;;;;8355773;28;20032;-61
2022/06/16 08:51:07;;;;;;;4.30;1.83;;;;;;;;;;8356618;28;20109;-61
2022/06/16 08:55:10;;;;;;;4.90;1.60;;;;;;;;;;8356159;28;20028;-61
2022/06/16 08:59:28;;;;;;;2.38;1.70;;;;;;;;;;8357150;28;20941;-61
2022/06/16 09:03:39;;;;;;;7.57;1.70;;;;;;;;;;8357087;28;20048;-61
2022/06/16 09:07:42;;;;;;;3.93;1.60;;;;;;;;;;8359540;28;20460;-61
2022/06/16 09:12:08;;;;;;;4.03;1.50;;;;;;;;;;8359431;28;20024;-61
2022/06/16 09:16:28;;;;;;;3.40;1.50;;;;;;;;;;8353936;28;20045;-61
2022/06/16 09:20:31;;;;;;;7.72;2.38;;;;;;;;;;8359886;28;20115;-60
2022/06/16 09:24:47;;;;;;;5.20;1.70;;;;;;;;;;8355235;28;20074;-61
2022/06/16 09:28:51;;;;;;;3.85;1.58;;;;;;;;;;8359078;28;20056;-61
2022/06/16 09:33:18;;;;;;;4.05;1.60;;;;;;;;;;8358120;28;20492;-61
2022/06/16 09:37:25;;;;;;;4.35;1.63;;;;;;;;;;8353936;28;20704;-61
2022/06/16 09:46:08;;;;;;;4.65;1.67;;;;;;;;;;8356092;28;20059;-62
2022/06/16 09:50:20;;;;;;;5.03;1.70;;;;;;;;;;8357075;28;21075;-62
2022/06/16 09:54:24;;;;;;;2.92;1.60;;;;;;;;;;8357765;28;20131;-61
2022/06/16 09:58:36;;;;;;;3.05;2.25;;;;;;;;;;8353820;28;20036;-61
2022/06/16 10:02:49;;;;;;;3.72;1.70;;;;;;;;;;8354151;28;20087;-61
2022/06/16 10:06:53;;;;;;;5.53;1.98;;;;;;;;;;8356771;28;20033;-66
2022/06/16 10:10:57;;;;;;;5.30;1.90;;;;;;;;;;8356724;28;20094;-61
2022/06/16 10:15:15;;;;;;;3.05;1.85;;;;;;;;;;8355358;28;20600;-61
2022/06/16 10:19:16;;;;;;;1.83;1.70;;;;;;;;;;8358264;28;20163;-60
2022/06/16 10:23:20;;;;;;;3.65;1.50;;;;;;;;;;8355778;28;20027;-61
2022/06/16 10:27:21;;;;;;;5.13;1.63;;;;;;;;;;8358632;28;20493;-61
2022/06/16 10:31:43;;;;;;;4.25;1.60;;;;;;;;;;8354246;28;20486;-61
2022/06/16 10:35:47;;;;;;;5.70;1.70;;;;;;;;;;8354837;28;20017;-61
2022/06/16 10:39:49;;;;;;;2.88;1.33;;;;;;;;;;8355691;28;20024;-61
2022/06/16 10:43:52;;;;;;;4.97;1.50;;;;;;;;;;8355029;28;20024;-61
2022/06/16 10:47:55;;;;;;;2.30;1.50;;;;;;;;;;8355432;28;20043;-61
2022/06/16 10:52:02;;;;;;;3.92;1.60;;;;;;;;;;8354819;28;20033;-61
2022/06/16 10:56:06;;;;;;;4.13;1.50;;;;;;;;;;8356596;28;20032;-60
2022/06/16 11:00:13;;;;;;;3.42;1.60;;;;;;;;;;8354562;28;20035;-61
2022/06/16 11:04:21;;;;;;;3.28;1.60;;;;;;;;;;8354694;28;20067;-61
2022/06/16 11:08:22;;;;;;;4.28;1.40;;;;;;;;;;8354587;28;20036;-62
2022/06/16 11:12:23;;;;;;;2.88;1.50;;;;;;;;;;8355962;28;20048;-61
2022/06/16 11:16:28;;;;;;;6.27;1.50;;;;;;;;;;8354232;28;20040;-61
2022/06/16 11:20:34;;;;;;;4.60;1.63;;;;;;;;;;8355619;28;20017;-62
2022/06/16 11:24:34;;;;;;;2.85;1.50;;;;;;;;;;8354715;28;20569;-61
2022/06/16 11:28:40;;;;;;;4.38;1.48;;;;;;;;;;8352030;28;20031;-61
2022/06/16 11:32:40;;;;;;;5.15;1.50;;;;;;;;;;8355106;28;20036;-61
2022/06/16 11:37:00;;;;;;;5.68;1.13;;;;;;;;;;8354607;28;20075;-61
2022/06/16 11:41:01;;;;;;;4.18;1.38;;;;;;;;;;8353087;28;20031;-61
2022/06/16 11:45:07;;;;;;;8.63;1.27;;;;;;;;;;8353472;28;20162;-61
2022/06/16 11:49:10;;;;;;;2.15;1.10;;;;;;;;;;8352443;28;20044;-61
2022/06/16 11:53:22;;;;;;;2.83;1.20;;;;;;;;;;8354851;28;20093;-61
2022/06/16 11:57:38;;;;;;;7.63;1.33;;;;;;;;;;8353383;28;20149;-62
2022/06/16 12:01:41;;;;;;;4.43;1.42;;;;;;;;;;8351378;28;20041;-61
2022/06/16 12:05:47;;;;;;;1.83;1.00;;;;;;;;;;8351911;28;20029;-61
2022/06/16 12:10:00;;;;;;;2.83;1.25;;;;;;;;;;8354062;28;20034;-61
2022/06/16 12:14:15;;;;;;;1.48;1.13;;;;;;;;;;8352808;28;20035;-61
2022/06/16 12:18:35;;;;;;;2.67;1.13;;;;;;;;;;8360240;28;20075;-61
2022/06/16 12:22:40;;;;;;;2.33;1.40;;;;;;;;;;8359579;28;20485;-61
2022/06/16 12:26:46;;;;;;;1.23;1.00;;;;;;;;;;8357791;28;20025;-61
2022/06/16 12:30:53;;;;;;;2.97;1.55;;;;;;;;;;8360248;28;20036;-62
2022/06/16 12:35:11;;;;;;;4.22;1.40;;;;;;;;;;8360363;28;21013;-61
2022/06/16 12:39:32;;;;;;;1.52;1.20;;;;;;;;;;8357668;28;20035;-61
2022/06/16 12:43:34;;;;;;;3.15;1.20;;;;;;;;;;8358682;28;20055;-61
2022/06/16 12:47:39;;;;;;;4.93;1.10;;;;;;;;;;8358119;28;20444;-61
2022/06/16 12:51:45;;;;;;;2.08;1.10;;;;;;;;;;8359465;28;21012;-61
2022/06/16 12:55:53;;;;;;;1.80;1.23;;;;;;;;;;8357840;28;20048;-61
2022/06/16 12:59:55;;;;;;;4.72;1.50;;;;;;;;;;8356832;28;20035;-62
2022/06/16 13:03:56;;;;;;;2.55;1.10;;;;;;;;;;8358158;28;20075;-61
2022/06/16 13:07:57;;;;;;;1.70;1.02;;;;;;;;;;8361839;28;20470;-61
2022/06/16 13:12:02;;;;;;;3.35;1.20;;;;;;;;;;8358317;28;20055;-61
2022/06/16 13:16:03;;;;;;;1.05;0.95;;;;;;;;;;8358187;28;20964;-62
2022/06/16 13:20:04;;;;;;;;;;;;;;;;;;8360300;28;20009;-61
2022/06/16 13:24:23;;;;;;;2.80;1.20;;;;;;;;;;8358621;28;19947;-61
2022/06/16 13:28:23;;;;;;;1.25;1.00;;;;;;;;;;8358321;28;20036;-62
2022/06/16 13:32:30;;;;;;;2.67;1.10;;;;;;;;;;8356354;28;20965;-61
2022/06/16 13:36:30;;;;;;;4.28;1.20;;;;;;;;;;8354677;28;20025;-61
2022/06/16 13:40:31;;;;;;;7.50;1.10;;;;;;;;;;8355227;28;20059;-61
2022/06/16 13:44:32;;;;;;;2.33;1.10;;;;;;;;;;8354766;28;20406;-61
2022/06/16 13:48:37;;;;;;;1.33;1.13;;;;;;;;;;8357446;28;20729;-61
2022/06/16 13:52:39;;;;;;;7.75;1.38;;;;;;;;;;8348512;28;20448;-62
2022/06/16 13:56:41;;;;;;;1.65;1.23;;;;;;;;;;8355829;28;20027;-62
2022/06/16 14:00:42;;;;;;;3.67;1.00;;;;;;;;;;8353884;28;20047;-61
2022/06/16 14:04:44;;;;;;;2.55;0.90;;;;;;;;;;8354466;28;20021;-61
2022/06/16 14:08:49;;;;;;;1.27;0.93;;;;;;;;;;8353977;28;20037;-61
2022/06/16 14:12:59;;;;;;;1.45;1.00;;;;;;;;;;8352339;28;20040;-61
2022/06/16 14:16:59;;;;;;;1.95;0.88;;;;;;;;;;8355074;28;20078;-61
2022/06/16 14:21:01;;;;;;;1.00;0.90;;;;;;;;;;8356991;28;20024;-61
2022/06/16 14:25:09;;;;;;;5.28;0.95;;;;;;;;;;8351004;28;20021;-62
2022/06/16 14:29:13;;;;;;;1.90;1.00;;;;;;;;;;8354910;28;20037;-61
2022/06/16 14:33:16;;;;;;;3.45;1.42;;;;;;;;;;8353990;28;20110;-61
2022/06/16 14:37:25;;;;;;;1.65;1.10;;;;;;;;;;8354124;28;20036;-61
2022/06/16 14:41:32;;;;;;;2.53;1.10;;;;;;;;;;8355905;28;20050;-61
2022/06/16 14:45:37;;;;;;;3.53;1.20;;;;;;;;;;8355537;28;20037;-61
2022/06/16 14:49:40;;;;;;;2.10;1.30;;;;;;;;;;8352480;28;20024;-61
2022/06/16 14:53:43;;;;;;;7.30;1.20;;;;;;;;;;8352820;28;20395;-61
2022/06/16 14:57:45;;;;;;;4.00;1.13;;;;;;;;;;8354471;28;20055;-62
2022/06/16 15:01:50;;;;;;;1.77;1.00;;;;;;;;;;8352959;28;20099;-61
2022/06/16 15:05:50;;;;;;;2.22;1.00;;;;;;;;;;8353038;28;20036;-61
2022/06/16 15:09:51;;;;;;;4.00;0.90;;;;;;;;;;8353137;28;20409;-61
2022/06/16 15:13:53;;;;;;;1.50;1.00;;;;;;;;;;8353036;28;20505;-61
2022/06/16 15:18:13;;;;;;;1.50;1.00;;;;;;;;;;8353143;28;20416;-62
2022/06/16 15:22:15;;;;;;;2.45;1.20;;;;;;;;;;8353604;28;20029;-61
2022/06/16 15:26:19;;;;;;;1.55;0.90;;;;;;;;;;8354586;28;20111;-61
2022/06/16 15:30:20;;;;;;;2.97;1.10;;;;;;;;;;8350033;28;20532;-62
2022/06/16 15:38:41;;;;;;;1.98;1.13;;;;;;;;;;8354220;28;20032;-62
2022/06/16 15:42:41;;;;;;;1.38;1.10;;;;;;;;;;8348917;28;20032;-61
2022/06/16 15:46:44;;;;;;;1.47;1.10;;;;;;;;;;8350971;28;20040;-61
2022/06/16 15:50:44;;;;;;;1.83;1.20;;;;;;;;;;8351226;28;20032;-61
2022/06/16 15:54:45;;;;;;;1.40;1.10;;;;;;;;;;8352337;28;20028;-61
2022/06/16 15:59:05;;;;;;;3.23;1.20;;;;;;;;;;8350121;28;20029;-62
2022/06/16 16:03:07;;;;;;;1.90;1.10;;;;;;;;;;8350444;28;20056;-61
2022/06/16 16:07:07;;;;;;;3.28;1.10;;;;;;;;;;8349975;28;20017;-62
2022/06/16 16:11:34;;;;;;;2.30;1.10;;;;;;;;;;8351385;28;20036;-62
2022/06/16 16:15:36;;;;;;;1.20;1.00;;;;;;;;;;8347338;28;20778;-62
2022/06/16 16:19:55;;;;;;;4.15;1.00;;;;;;;;;;8351944;28;20032;-61
2022/06/16 16:23:56;;;;;;;1.30;0.98;;;;;;;;;;8350902;28;20047;-61
2022/06/16 16:27:57;;;;;;;3.47;1.38;;;;;;;;;;8352637;28;20203;-61
2022/06/16 16:32:02;;;;;;;1.33;1.13;;;;;;;;;;8350685;28;20579;-61
2022/06/16 16:36:02;;;;;;;3.47;1.10;;;;;;;;;;8349489;28;20062;-61
2022/06/16 16:40:05;;;;;;;4.15;1.15;;;;;;;;;;8352573;28;20532;-61
2022/06/16 16:44:07;;;;;;;3.15;1.48;;;;;;;;;;8351684;28;20489;-61
2022/06/16 16:48:10;;;;;;;3.80;1.10;;;;;;;;;;8352001;28;20028;-61
2022/06/16 16:52:13;;;;;;;2.90;1.10;;;;;;;;;;8350345;28;20536;-61
2022/06/16 16:56:15;;;;;;;2.65;1.20;;;;;;;;;;8347744;28;20036;-61
2022/06/16 17:00:15;;;;;;;;;;;;;;;;;;8353750;28;20188;-61
2022/06/16 17:04:17;;;;;;;2.13;1.00;;;;;;;;;;8356181;28;20528;-61
2022/06/16 17:08:18;;;;;;;2.13;1.00;;;;;;;;;;8356480;28;20042;-62
2022/06/16 17:12:18;;;;;;;1.35;1.10;;;;;;;;;;8357618;28;20074;-61
2022/06/16 17:16:18;;;;;;;1.40;1.10;;;;;;;;;;8355671;28;20040;-61
2022/06/16 17:20:19;;;;;;;1.63;1.00;;;;;;;;;;8355256;28;20024;-61
2022/06/16 17:24:21;;;;;;;3.40;0.90;;;;;;;;;;8355987;28;20348;-61
2022/06/16 17:28:21;;;;;;;1.60;1.00;;;;;;;;;;8357658;28;20028;-62
2022/06/16 17:32:23;;;;;;;3.72;0.95;;;;;;;;;;8353949;28;20476;-65
2022/06/16 17:36:23;;;;;;;1.00;0.87;;;;;;;;;;8357008;28;20036;-62
2022/06/16 17:40:24;;;;;;;1.42;1.00;;;;;;;;;;8354339;28;21141;-62
2022/06/16 17:44:25;;;;;;;3.03;0.80;;;;;;;;;;8357613;28;20078;-61
2022/06/16 17:48:25;;;;;;;0.85;0.80;;;;;;;;;;8353663;28;20609;-61
2022/06/16 18:00:39;;;;;;;1.07;0.90;;;;;;;;;;8353180;28;20085;-61
2022/06/16 18:04:39;;;;;;;1.00;0.90;;;;;;;;;;8351000;28;20025;-61
2022/06/16 18:08:41;;;;;;;1.13;0.88;;;;;;;;;;8346638;28;20032;-60
2022/06/16 18:12:42;;;;;;;2.53;0.75;;;;;;;;;;8346346;28;20391;-61
2022/06/16 18:16:42;;;;;;;2.72;0.80;;;;;;;;;;8344776;28;20037;-61
2022/06/16 18:20:44;;;;;;;3.40;1.00;;;;;;;;;;8344115;28;20080;-61
2022/06/16 18:24:50;;;;;;;7.70;1.20;;;;;;;;;;8346479;28;20032;-60
2022/06/16 18:28:58;;;;;;;2.00;0.90;;;;;;;;;;8346609;28;20654;-60
2022/06/16 18:32:58;;;;;;;6.93;0.90;;;;;;;;;;8346938;28;21003;-60
2022/06/16 18:37:02;;;;;;;1.67;0.90;;;;;;;;;;8346136;28;20020;-60
2022/06/16 18:41:03;;;;;;;3.80;0.80;;;;;;;;;;8346551;28;20038;-61
2022/06/16 18:45:05;;;;;;;0.85;0.73;;;;;;;;;;8344954;28;20023;-60
2022/06/16 18:49:15;;;;;;;3.03;0.80;;;;;;;;;;8345283;28;20442;-60
2022/06/16 18:53:18;;;;;;;1.60;0.80;;;;;;;;;;8348058;28;20347;-61
2022/06/16 18:57:20;;;;;;;2.28;0.90;;;;;;;;;;8346867;28;20074;-60
2022/06/16 19:01:20;;;;;;;1.37;0.90;;;;;;;;;;8343319;28;20494;-60
2022/06/16 19:05:25;;;;;;;1.15;0.60;;;;;;;;;;8346453;28;20545;-60
2022/06/16 19:09:25;;;;;;;1.90;0.80;;;;;;;;;;8344474;28;20063;-60
2022/06/16 19:13:28;;;;;;;0.80;0.80;;;;;;;;;;8348030;28;20085;-59
2022/06/16 19:17:32;;;;;;;0.82;0.70;;;;;;;;;;8346108;28;20044;-60
2022/06/16 19:21:33;;;;;;;0.80;0.80;;;;;;;;;;8344915;28;20029;-59
2022/06/16 19:25:34;;;;;;;1.13;0.70;;;;;;;;;;8346088;28;20150;-59
2022/06/16 19:29:34;;;;;;;0.93;0.80;;;;;;;;;;8343476;28;20048;-59
2022/06/16 19:33:36;;;;;;;0.80;0.70;;;;;;;;;;8346155;28;20045;-59
2022/06/16 19:37:37;;;;;;;0.77;0.77;;;;;;;;;;8348319;28;20043;-60
2022/06/16 19:41:38;;;;;;;1.55;0.90;;;;;;;;;;8348980;28;20033;-59
2022/06/16 19:54:16;;;;;;;2.70;0.90;;;;;;;;;;8346912;28;20082;-59
2022/06/16 19:58:17;;;;;;;1.25;0.80;;;;;;;;;;8349495;28;20013;-60
2022/06/16 20:02:17;;;;;;;2.88;0.80;;;;;;;;;;8346524;28;20033;-59
2022/06/16 20:06:17;;;;;;;1.70;0.83;;;;;;;;;;8347568;28;20737;-63
2022/06/16 20:10:18;;;;;;;1.30;0.73;;;;;;;;;;8347533;28;20493;-59
2022/06/16 20:14:19;;;;;;;0.68;0.65;;;;;;;;;;8348247;28;20064;-59
2022/06/16 20:18:21;;;;;;;0.80;0.75;;;;;;;;;;8350194;28;20042;-59
2022/06/16 20:22:21;;;;;;;3.92;0.77;;;;;;;;;;8348976;28;20032;-59
2022/06/16 20:26:21;;;;;;;1.73;0.90;;;;;;;;;;8350210;28;20024;-59
2022/06/16 20:30:22;;;;;;;0.93;0.87;;;;;;;;;;8341803;28;20246;-59
2022/06/16 20:34:22;;;;;;;1.33;0.73;;;;;;;;;;8350586;28;20251;-59
2022/06/16 20:38:22;;;;;;;0.77;0.70;;;;;;;;;;8357395;28;20056;-59
2022/06/16 20:42:23;;;;;;;0.97;0.80;;;;;;;;;;8357163;28;20804;-60
2022/06/16 20:46:23;;;;;;;1.50;0.90;;;;;;;;;;8354996;28;20047;-59
2022/06/16 20:50:24;;;;;;;1.07;0.77;;;;;;;;;;8359290;28;20056;-59
2022/06/16 20:54:25;;;;;;;1.15;0.80;;;;;;;;;;8356803;28;20033;-60
2022/06/16 21:02:44;;;;;;;2.33;0.95;;;;;;;;;;8354925;28;20531;-59
2022/06/16 21:06:44;;;;;;;5.47;1.10;;;;;;;;;;8359872;28;20059;-59
2022/06/16 21:10:45;;;;;;;0.93;0.70;;;;;;;;;;8355086;28;20017;-59
2022/06/16 21:14:46;;;;;;;0.75;0.70;;;;;;;;;;8356473;28;20040;-60
2022/06/16 21:18:47;;;;;;;0.90;0.90;;;;;;;;;;8358020;28;20048;-59
2022/06/16 21:22:47;;;;;;;1.30;0.80;;;;;;;;;;8356028;28;20040;-60
2022/06/16 21:26:48;;;;;;;0.83;0.83;;;;;;;;;;8355061;28;20028;-60
2022/06/16 21:30:49;;;;;;;1.23;0.82;;;;;;;;;;8355820;28;20052;-60
2022/06/16 21:34:50;;;;;;;0.70;0.70;;;;;;;;;;8357511;28;20032;-59
2022/06/16 21:38:52;;;;;;;1.50;0.80;;;;;;;;;;8357672;28;20032;-59
2022/06/16 21:42:52;;;;;;;1.13;0.80;;;;;;;;;;8355621;28;20031;-59
2022/06/16 21:46:55;;;;;;;1.10;1.00;;;;;;;;;;8356146;28;20049;-59
2022/06/16 21:51:05;;;;;;;1.23;0.82;;;;;;;;;;8358204;28;20024;-59
2022/06/16 21:55:07;;;;;;;1.23;1.05;;;;;;;;;;8356577;28;20041;-59
2022/06/16 21:59:08;;;;;;;2.63;0.80;;;;;;;;;;8357865;28;20043;-59
2022/06/16 22:03:11;;;;;;;1.27;1.00;;;;;;;;;;8356597;28;20044;-60
2022/06/16 22:07:11;;;;;;;1.93;1.03;;;;;;;;;;8357554;28;20020;-59
2022/06/16 22:15:49;;;;;;;1.10;0.85;;;;;;;;;;8354840;28;20114;-59
2022/06/16 22:19:51;;;;;;;0.98;0.90;;;;;;;;;;8356065;28;20027;-59
2022/06/16 22:23:52;;;;;;;1.92;1.00;;;;;;;;;;8356765;28;20082;-60
2022/06/16 22:27:54;;;;;;;2.93;0.90;;;;;;;;;;8352978;28;20060;-60
2022/06/16 22:31:54;;;;;;;0.95;0.80;;;;;;;;;;8355685;28;20044;-60
2022/06/16 22:35:55;;;;;;;4.00;1.08;;;;;;;;;;8352566;28;20032;-59
2022/06/16 22:44:19;;;;;;;1.00;0.90;;;;;;;;;;8354477;28;20039;-60
2022/06/16 22:48:28;;;;;;;1.80;0.98;;;;;;;;;;8354322;28;20033;-59
2022/06/16 22:52:29;;;;;;;1.70;1.00;;;;;;;;;;8355857;28;20095;-59
2022/06/16 22:56:29;;;;;;;1.00;0.90;;;;;;;;;;8356123;28;20032;-60
2022/06/16 23:00:30;;;;;;;1.13;0.90;;;;;;;;;;8352625;28;20040;-59
2022/06/16 23:04:31;;;;;;;0.80;0.80;;;;;;;;;;8356375;28;20266;-59
2022/06/16 23:08:39;;;;;;;1.10;0.80;;;;;;;;;;8356861;28;20035;-59
2022/06/16 23:12:39;;;;;;;1.58;1.00;;;;;;;;;;8355446;28;20840;-59
2022/06/16 23:16:40;;;;;;;1.08;0.95;;;;;;;;;;8353031;28;20037;-60
2022/06/16 23:20:41;;;;;;;0.90;0.90;;;;;;;;;;8354382;28;20612;-59
2022/06/16 23:24:41;;;;;;;2.35;1.00;;;;;;;;;;8352143;28;20040;-59
2022/06/16 23:28:42;;;;;;;1.98;0.95;;;;;;;;;;8354284;28;20035;-60
2022/06/16 23:32:42;;;;;;;1.20;0.90;;;;;;;;;;8351831;28;20044;-59
2022/06/16 23:36:47;;;;;;;1.40;1.00;;;;;;;;;;8352192;28;20124;-60
2022/06/16 23:40:47;;;;;;;5.03;1.20;;;;;;;;;;8353191;28;20550;-59
2022/06/16 23:44:47;;;;;;;1.75;1.20;;;;;;;;;;8351921;28;20024;-59
2022/06/16 23:48:48;;;;;;;2.13;1.10;;;;;;;;;;8353856;28;20074;-59
2022/06/16 23:52:48;;;;;;;2.03;1.10;;;;;;;;;;8355035;28;20020;-60
2022/06/16 23:56:48;;;;;;;1.23;1.02;;;;;;;;;;8354266;28;20032;-59
